createdAt,value
2019-05-06T00:01:28.945Z,93.20
2019-05-06T00:04:00.934Z,93.30
2019-05-06T00:06:31.492Z,93.30
2019-05-06T00:09:03.813Z,93.20
2019-05-06T00:11:35.511Z,93.30
2019-05-06T00:14:05.803Z,93.10
2019-05-06T00:16:36.147Z,93.30
2019-05-06T00:19:06.471Z,93.20
2019-05-06T00:21:36.813Z,93.20
2019-05-06T00:24:07.141Z,93.10
2019-05-06T00:27:04.583Z,93.20
2019-05-06T00:29:35.663Z,93.30
2019-05-06T00:32:05.998Z,93.50
2019-05-06T00:34:36.297Z,93.20
2019-05-06T00:37:06.679Z,93.30
2019-05-06T00:40:04.802Z,93.20
2019-05-06T00:42:37.667Z,93.50
2019-05-06T00:45:09.095Z,93.10
2019-05-06T00:47:39.430Z,93.20
2019-05-06T00:50:10.006Z,93.60
2019-05-06T00:52:40.435Z,93.50
2019-05-06T00:55:10.829Z,93.50
2019-05-06T00:57:44.246Z,93.40
2019-05-06T01:00:20.259Z,93.70
2019-05-06T01:02:50.638Z,93.80
2019-05-06T01:05:20.960Z,94.10
2019-05-06T01:07:51.327Z,94.20
2019-05-06T01:10:23.816Z,94.10
2019-05-06T01:13:14.580Z,94.00
2019-05-06T01:15:46.316Z,94.00
2019-05-06T01:18:16.620Z,94.20
2019-05-06T01:20:46.999Z,94.20
2019-05-06T01:23:17.339Z,94.20
2019-05-06T01:25:47.656Z,94.10
2019-05-06T01:28:17.995Z,93.90
2019-05-06T01:30:48.290Z,94.00
2019-05-06T01:33:18.645Z,94.30
2019-05-06T01:35:48.961Z,94.30
2019-05-06T01:38:27.489Z,94.30
2019-05-06T01:41:15.701Z,94.60
2019-05-06T01:43:46.260Z,94.60
2019-05-06T01:46:16.575Z,94.80
2019-05-06T01:48:49.901Z,94.80
2019-05-06T01:51:21.180Z,94.40
2019-05-06T01:53:54.163Z,95.00
2019-05-06T01:56:24.245Z,95.20
2019-05-06T01:58:54.597Z,95.10
2019-05-06T02:01:25.217Z,95.70
2019-05-06T02:03:56.635Z,95.50
2019-05-06T02:06:26.952Z,95.30
2019-05-06T02:08:57.291Z,95.20
2019-05-06T02:11:27.611Z,95.80
2019-05-06T02:13:57.948Z,95.30
2019-05-06T02:16:28.251Z,95.20
2019-05-06T02:18:58.596Z,95.40
2019-05-06T02:21:46.507Z,95.30
2019-05-06T02:24:24.092Z,95.10
2019-05-06T02:26:54.399Z,95.40
2019-05-06T02:29:26.835Z,95.50
2019-05-06T02:32:21.114Z,95.60
2019-05-06T02:35:18.029Z,95.50
2019-05-06T02:37:49.328Z,95.80
2019-05-06T02:40:24.779Z,95.90
2019-05-06T02:42:55.053Z,95.50
2019-05-06T02:45:25.738Z,95.30
2019-05-06T02:48:24.318Z,95.40
2019-05-06T02:51:06.967Z,95.50
2019-05-06T02:53:37.339Z,95.50
2019-05-06T02:56:07.723Z,95.50
2019-05-06T02:58:39.107Z,95.50
2019-05-06T03:01:09.466Z,95.10
2019-05-06T03:03:43.352Z,95.10
2019-05-06T03:06:13.113Z,95.30
2019-05-06T03:08:43.818Z,95.60
2019-05-06T03:11:14.191Z,95.30
2019-05-06T03:13:44.638Z,95.80
2019-05-06T03:16:15.004Z,95.60
2019-05-06T03:18:45.283Z,95.70
2019-05-06T03:21:36.954Z,95.50
2019-05-06T03:24:23.817Z,95.20
2019-05-06T03:26:57.061Z,95.30
2019-05-06T03:29:26.953Z,95.10
2019-05-06T03:31:57.624Z,95.20
2019-05-06T03:34:52.982Z,95.00
2019-05-06T03:37:06.498Z,95.10
2019-05-06T03:39:34.388Z,94.90
2019-05-06T03:42:05.013Z,94.80
2019-05-06T03:44:37.306Z,94.80
2019-05-06T03:47:18.576Z,94.90
2019-05-06T03:49:50.263Z,94.90
2019-05-06T03:52:23.453Z,94.70
2019-05-06T03:54:59.278Z,94.90
2019-05-06T03:57:35.384Z,95.00
2019-05-06T04:00:04.892Z,95.10
2019-05-06T04:02:39.373Z,94.90
2019-05-06T04:05:07.802Z,94.90
2019-05-06T04:07:38.131Z,95.00
2019-05-06T04:10:09.259Z,95.10
2019-05-06T04:12:39.635Z,95.40
2019-05-06T04:15:10.534Z,95.20
2019-05-06T04:17:46.612Z,95.40
2019-05-06T04:20:26.988Z,95.40
2019-05-06T04:23:15.483Z,95.50
2019-05-06T04:25:54.421Z,95.50
2019-05-06T04:28:27.566Z,95.30
2019-05-06T04:30:57.975Z,95.90
2019-05-06T04:33:28.341Z,95.40
2019-05-06T04:35:59.339Z,95.60
2019-05-06T04:38:29.656Z,95.70
2019-05-06T04:41:02.741Z,95.70
2019-05-06T04:43:33.718Z,95.70
2019-05-06T04:46:04.268Z,95.30
2019-05-06T04:48:34.600Z,95.40
2019-05-06T04:51:04.933Z,95.30
2019-05-06T04:53:35.376Z,95.10
2019-05-06T04:56:05.743Z,95.00
2019-05-06T04:58:36.091Z,95.20
2019-05-06T05:01:06.397Z,95.20
2019-05-06T05:03:36.746Z,95.10
2019-05-06T05:06:07.056Z,95.00
2019-05-06T05:08:37.680Z,95.00
2019-05-06T05:11:19.291Z,94.90
2019-05-06T05:14:13.451Z,95.10
2019-05-06T05:17:03.506Z,95.10
2019-05-06T05:19:42.794Z,95.20
2019-05-06T05:22:12.982Z,95.10
2019-05-06T05:24:43.310Z,95.20
2019-05-06T05:27:13.728Z,95.20
2019-05-06T05:29:44.158Z,95.00
2019-05-06T05:32:14.459Z,95.40
2019-05-06T05:34:44.809Z,95.30
2019-05-06T05:37:15.218Z,95.20
2019-05-06T05:39:45.624Z,95.20
2019-05-06T05:42:34.883Z,95.40
2019-05-06T05:45:05.750Z,95.40
2019-05-06T05:47:36.067Z,95.40
2019-05-06T05:50:16.266Z,95.60
2019-05-06T05:52:46.593Z,95.20
2019-05-06T05:55:16.910Z,94.80
2019-05-06T05:57:47.223Z,94.70
2019-05-06T06:00:18.361Z,94.40
2019-05-06T06:02:48.880Z,94.00
2019-05-06T06:05:19.229Z,93.70
2019-05-06T06:07:49.535Z,93.40
2019-05-06T06:10:33.224Z,93.20
2019-05-06T06:13:03.544Z,92.90
2019-05-06T06:15:42.368Z,92.70
2019-05-06T06:18:22.437Z,92.70
2019-05-06T06:21:17.756Z,92.20
2019-05-06T06:23:41.891Z,92.00
2019-05-06T06:26:12.106Z,91.90
2019-05-06T06:28:43.683Z,92.00
2019-05-06T06:31:25.977Z,91.30
2019-05-06T06:34:01.928Z,90.90
2019-05-06T06:36:38.477Z,90.70
2019-05-06T06:39:22.862Z,90.40
2019-05-06T06:41:53.335Z,89.90
2019-05-06T06:44:26.318Z,89.20
2019-05-06T06:46:56.685Z,89.00
2019-05-06T06:49:26.998Z,88.70
2019-05-06T06:51:57.341Z,88.10
2019-05-06T06:54:27.633Z,88.10
2019-05-06T06:57:14.338Z,87.20
2019-05-06T07:00:05.797Z,85.40
2019-05-06T07:02:48.430Z,85.10
2019-05-06T07:05:42.340Z,85.00
2019-05-06T07:08:12.818Z,84.40
2019-05-06T07:10:43.405Z,83.30
2019-05-06T07:13:15.309Z,82.30
2019-05-06T07:15:46.094Z,81.20
2019-05-06T07:18:16.569Z,80.80
2019-05-06T07:20:57.705Z,79.90
2019-05-06T07:23:29.677Z,78.90
2019-05-06T07:26:03.032Z,77.90
2019-05-06T07:28:34.640Z,78.30
2019-05-06T07:31:20.767Z,78.20
2019-05-06T07:33:36.980Z,77.10
2019-05-06T07:36:07.421Z,77.20
2019-05-06T07:38:39.413Z,76.30
2019-05-06T07:41:17.954Z,74.20
2019-05-06T07:44:07.200Z,73.00
2019-05-06T07:46:55.639Z,72.20
2019-05-06T07:49:25.954Z,72.10
2019-05-06T07:51:56.321Z,70.00
2019-05-06T07:54:26.675Z,69.90
2019-05-06T07:56:57.030Z,69.80
2019-05-06T07:59:27.391Z,68.70
2019-05-06T08:01:57.709Z,67.30
2019-05-06T08:04:28.030Z,67.90
2019-05-06T08:06:58.392Z,68.40
2019-05-06T08:09:28.720Z,67.00
2019-05-06T08:11:59.066Z,66.20
2019-05-06T08:14:42.925Z,65.00
2019-05-06T08:17:29.515Z,61.30
2019-05-06T08:20:02.327Z,59.90
2019-05-06T08:22:57.225Z,60.80
2019-05-06T08:25:32.846Z,59.90
2019-05-06T08:28:02.582Z,57.60
2019-05-06T08:30:33.211Z,55.90
2019-05-06T08:33:03.520Z,53.40
2019-05-06T08:35:33.839Z,53.80
2019-05-06T08:38:04.185Z,54.20
2019-05-06T08:40:34.505Z,54.00
2019-05-06T08:43:05.009Z,54.10
2019-05-06T08:45:35.504Z,54.90
2019-05-06T08:48:05.871Z,56.10
2019-05-06T08:51:02.764Z,55.10
2019-05-06T08:53:37.783Z,56.20
2019-05-06T08:56:12.577Z,58.20
2019-05-06T08:58:49.053Z,59.10
2019-05-06T09:01:38.595Z,58.60
2019-05-06T09:04:12.907Z,59.70
2019-05-06T09:06:42.938Z,60.60
2019-05-06T09:09:13.199Z,59.90
2019-05-06T09:11:43.614Z,58.60
2019-05-06T09:14:14.281Z,56.70
2019-05-06T09:16:44.682Z,54.50
2019-05-06T09:19:15.040Z,52.50
2019-05-06T09:21:46.319Z,53.00
2019-05-06T09:24:16.903Z,52.80
2019-05-06T09:26:54.908Z,52.80
2019-05-06T09:29:42.733Z,53.30
2019-05-06T09:32:17.095Z,52.30
2019-05-06T09:34:58.349Z,51.00
2019-05-06T09:37:28.732Z,50.60
2019-05-06T09:39:59.085Z,50.70
2019-05-06T09:42:29.481Z,51.60
2019-05-06T09:45:02.059Z,50.90
2019-05-06T09:47:56.027Z,50.60
2019-05-06T09:50:36.906Z,50.00
2019-05-06T09:53:09.340Z,48.30
2019-05-06T09:55:57.393Z,50.00
2019-05-06T09:58:32.598Z,50.40
2019-05-06T10:01:04.131Z,48.60
2019-05-06T10:03:34.516Z,48.90
2019-05-06T10:06:04.931Z,46.20
2019-05-06T10:08:35.236Z,45.40
2019-05-06T10:11:05.599Z,45.30
2019-05-06T10:13:35.967Z,45.20
2019-05-06T10:16:06.314Z,46.10
2019-05-06T10:18:36.801Z,44.50
2019-05-06T10:21:07.260Z,44.80
2019-05-06T10:23:37.586Z,44.30
2019-05-06T10:26:07.982Z,44.30
2019-05-06T10:28:57.233Z,45.60
2019-05-06T10:31:29.180Z,46.00
2019-05-06T10:34:13.857Z,45.70
2019-05-06T10:36:55.331Z,44.70
2019-05-06T10:39:29.195Z,45.70
2019-05-06T10:42:14.057Z,43.60
2019-05-06T10:45:25.794Z,42.30
2019-05-06T10:47:56.867Z,43.20
2019-05-06T10:50:29.775Z,43.70
2019-05-06T10:53:18.021Z,44.00
2019-05-06T10:56:02.298Z,42.70
2019-05-06T10:58:32.685Z,43.40
2019-05-06T11:01:16.038Z,42.10
2019-05-06T11:03:46.392Z,40.60
2019-05-06T11:06:16.738Z,41.30
2019-05-06T11:08:47.054Z,40.70
2019-05-06T11:11:31.531Z,39.00
2019-05-06T11:13:49.323Z,37.80
2019-05-06T11:16:19.703Z,37.60
2019-05-06T11:18:50.094Z,36.30
2019-05-06T11:21:22.690Z,32.80
2019-05-06T11:23:52.757Z,32.30
2019-05-06T11:26:23.797Z,32.50
2019-05-06T11:29:04.760Z,31.20
2019-05-06T11:31:56.018Z,30.00
2019-05-06T11:34:55.404Z,30.00
2019-05-06T11:37:49.684Z,31.20
2019-05-06T11:40:16.995Z,32.70
2019-05-06T11:42:47.800Z,34.70
2019-05-06T11:45:18.210Z,36.80
2019-05-06T11:47:48.603Z,37.70
2019-05-06T11:50:19.000Z,38.60
2019-05-06T11:52:49.319Z,39.70
2019-05-06T11:55:28.810Z,40.60
2019-05-06T11:57:52.957Z,41.00
2019-05-06T12:00:27.691Z,41.30
2019-05-06T12:02:58.090Z,41.30
2019-05-06T12:05:28.546Z,41.40
2019-05-06T12:08:07.261Z,41.40
2019-05-06T12:10:33.076Z,40.60
2019-05-06T12:13:03.587Z,40.10
2019-05-06T12:15:33.993Z,39.30
2019-05-06T12:18:04.323Z,38.00
2019-05-06T12:20:34.693Z,38.20
2019-05-06T12:23:05.034Z,36.90
2019-05-06T12:25:35.359Z,36.70
2019-05-06T12:28:05.690Z,36.50
2019-05-06T12:30:35.996Z,36.60
2019-05-06T12:33:37.107Z,34.80
2019-05-06T12:36:21.081Z,33.90
2019-05-06T12:39:14.809Z,34.50
2019-05-06T12:42:14.008Z,34.10
2019-05-06T12:45:09.558Z,33.50
2019-05-06T12:47:47.435Z,32.50
2019-05-06T12:50:17.854Z,33.90
2019-05-06T12:52:48.214Z,35.30
2019-05-06T12:55:24.323Z,34.50
2019-05-06T12:57:53.043Z,33.40
2019-05-06T13:00:23.879Z,32.70
2019-05-06T13:02:54.239Z,32.80
2019-05-06T13:05:24.616Z,31.70
2019-05-06T13:07:54.943Z,30.60
2019-05-06T13:10:25.250Z,29.50
2019-05-06T13:13:02.357Z,28.50
2019-05-06T13:15:32.683Z,28.40
2019-05-06T13:18:07.065Z,29.10
2019-05-06T13:20:36.172Z,28.30
2019-05-06T13:23:28.641Z,27.40
2019-05-06T13:25:58.911Z,27.00
2019-05-06T13:28:33.397Z,26.30
2019-05-06T13:31:15.834Z,24.10
2019-05-06T13:33:54.044Z,24.60
2019-05-06T13:36:23.301Z,23.60
2019-05-06T13:39:09.454Z,23.40
2019-05-06T13:41:25.666Z,23.60
2019-05-06T13:44:02.649Z,22.80
2019-05-06T13:46:35.626Z,22.20
2019-05-06T13:49:27.390Z,22.30
2019-05-06T13:52:04.393Z,21.60
2019-05-06T13:54:36.050Z,22.00
2019-05-06T13:57:06.410Z,21.50
2019-05-06T13:59:37.323Z,21.20
2019-05-06T14:02:27.857Z,20.80
2019-05-06T14:04:59.386Z,21.20
2019-05-06T14:07:29.760Z,20.60
2019-05-06T14:10:02.511Z,20.90
2019-05-06T14:12:33.425Z,21.10
2019-05-06T14:15:04.518Z,22.00
2019-05-06T14:17:35.452Z,21.70
2019-05-06T14:20:07.034Z,22.10
2019-05-06T14:22:37.456Z,22.50
2019-05-06T14:25:43.388Z,22.80
2019-05-06T14:28:34.603Z,23.60
2019-05-06T14:31:18.769Z,25.10
2019-05-06T14:33:49.131Z,25.70
2019-05-06T14:36:19.458Z,25.80
2019-05-06T14:38:53.241Z,25.90
2019-05-06T14:41:27.117Z,26.00
2019-05-06T14:43:57.636Z,26.00
2019-05-06T14:46:47.084Z,25.90
2019-05-06T14:49:17.430Z,25.80
2019-05-06T14:51:47.762Z,24.40
2019-05-06T14:54:18.234Z,23.50
2019-05-06T14:56:53.346Z,23.20
2019-05-06T14:59:23.938Z,23.60
2019-05-06T15:01:54.247Z,24.00
2019-05-06T15:04:24.640Z,23.50
2019-05-06T15:06:54.954Z,24.00
2019-05-06T15:09:25.308Z,24.30
2019-05-06T15:11:55.620Z,23.70
2019-05-06T15:14:26.010Z,23.60
2019-05-06T15:16:56.304Z,23.80
2019-05-06T15:19:26.626Z,24.20
2019-05-06T15:21:56.925Z,24.60
2019-05-06T15:24:27.295Z,25.00
2019-05-06T15:26:57.667Z,25.50
2019-05-06T15:29:28.116Z,26.60
2019-05-06T15:32:29.542Z,27.00
2019-05-06T15:35:18.909Z,27.50
2019-05-06T15:37:53.408Z,28.20
2019-05-06T15:40:32.228Z,28.80
2019-05-06T15:42:57.102Z,29.50
2019-05-06T15:45:27.665Z,30.00
2019-05-06T15:47:57.968Z,30.30
2019-05-06T15:50:28.336Z,30.80
2019-05-06T15:52:58.668Z,30.70
2019-05-06T15:55:29.043Z,31.20
2019-05-06T15:57:59.348Z,31.40
2019-05-06T16:00:29.700Z,31.70
2019-05-06T16:03:00.098Z,32.10
2019-05-06T16:05:31.659Z,31.90
2019-05-06T16:08:03.097Z,32.20
2019-05-06T16:10:50.974Z,31.90
2019-05-06T16:13:05.927Z,32.10
2019-05-06T16:15:36.234Z,32.20
2019-05-06T16:18:06.671Z,31.90
2019-05-06T16:20:37.004Z,32.10
2019-05-06T16:23:16.369Z,32.40
2019-05-06T16:25:46.727Z,32.30
2019-05-06T16:28:17.302Z,32.40
2019-05-06T16:30:47.658Z,32.90
2019-05-06T16:33:19.021Z,33.30
2019-05-06T16:35:49.558Z,33.80
2019-05-06T16:38:19.926Z,34.00
2019-05-06T16:40:50.251Z,34.20
2019-05-06T16:43:22.157Z,34.20
2019-05-06T16:45:53.141Z,33.70
2019-05-06T16:48:23.952Z,33.80
2019-05-06T16:50:54.446Z,34.30
2019-05-06T16:53:24.803Z,34.60
2019-05-06T16:56:06.380Z,34.00
2019-05-06T16:58:39.109Z,33.80
2019-05-06T17:01:09.839Z,33.90
2019-05-06T17:03:48.341Z,35.20
2019-05-06T17:06:24.140Z,34.70
2019-05-06T17:08:54.495Z,35.00
2019-05-06T17:11:30.310Z,35.30
2019-05-06T17:13:56.771Z,35.60
2019-05-06T17:16:27.310Z,35.60
2019-05-06T17:18:57.655Z,36.00
2019-05-06T17:21:28.002Z,35.90
2019-05-06T17:23:58.360Z,36.20
2019-05-06T17:26:28.745Z,36.80
2019-05-06T17:29:14.011Z,36.30
2019-05-06T17:31:56.618Z,36.30
2019-05-06T17:34:31.171Z,36.40
2019-05-06T17:37:08.021Z,37.00
2019-05-06T17:39:39.225Z,37.40
2019-05-06T17:42:09.507Z,37.50
2019-05-06T17:44:39.851Z,37.70
2019-05-06T17:47:22.822Z,38.00
2019-05-06T17:49:52.986Z,38.00
2019-05-06T17:52:23.811Z,37.90
2019-05-06T17:54:55.261Z,38.20
2019-05-06T17:57:25.608Z,38.20
2019-05-06T17:59:56.015Z,38.50
2019-05-06T18:02:27.377Z,38.60
2019-05-06T18:04:58.010Z,38.60
2019-05-06T18:07:29.347Z,38.60
2019-05-06T18:10:02.903Z,38.50
2019-05-06T18:12:33.287Z,38.70
2019-05-06T18:15:03.977Z,38.80
2019-05-06T18:17:36.092Z,38.70
2019-05-06T18:20:06.898Z,39.30
2019-05-06T18:22:37.185Z,39.10
2019-05-06T18:25:07.544Z,39.40
2019-05-06T18:27:37.872Z,39.50
2019-05-06T18:30:19.377Z,39.60
2019-05-06T18:32:42.263Z,40.00
2019-05-06T18:35:13.115Z,40.00
2019-05-06T18:37:44.415Z,40.20
2019-05-06T18:40:15.121Z,40.30
2019-05-06T18:42:45.454Z,40.40
2019-05-06T18:45:15.929Z,40.60
2019-05-06T18:47:46.306Z,40.70
2019-05-06T18:50:17.298Z,40.50
2019-05-06T18:52:47.627Z,40.70
2019-05-06T18:55:18.101Z,40.30
2019-05-06T18:57:48.425Z,40.30
2019-05-06T19:00:18.992Z,40.50
2019-05-06T19:02:49.324Z,41.70
2019-05-06T19:05:38.640Z,40.90
2019-05-06T19:08:25.529Z,41.00
2019-05-06T19:10:55.881Z,41.20
2019-05-06T19:13:27.052Z,41.50
2019-05-06T19:15:59.196Z,42.60
2019-05-06T19:18:31.141Z,44.00
2019-05-06T19:21:02.646Z,44.70
2019-05-06T19:23:33.098Z,45.20
2019-05-06T19:26:04.832Z,45.70
2019-05-06T19:28:35.134Z,46.10
2019-05-06T19:31:05.716Z,46.50
2019-05-06T19:33:36.031Z,47.00
2019-05-06T19:36:06.373Z,47.40
2019-05-06T19:38:36.695Z,48.10
2019-05-06T19:41:07.112Z,48.80
2019-05-06T19:43:37.429Z,48.30
2019-05-06T19:46:07.834Z,48.30
2019-05-06T19:48:38.845Z,49.90
2019-05-06T19:51:09.809Z,50.50
2019-05-06T19:53:42.826Z,51.80
2019-05-06T19:56:13.252Z,52.20
2019-05-06T19:58:43.575Z,52.70
2019-05-06T20:01:14.205Z,52.90
2019-05-06T20:03:44.555Z,53.60
2019-05-06T20:06:33.871Z,54.00
2019-05-06T20:09:23.088Z,55.00
2019-05-06T20:11:55.918Z,56.50
2019-05-06T20:14:26.266Z,58.60
2019-05-06T20:16:56.627Z,59.30
2019-05-06T20:19:31.102Z,61.20
2019-05-06T20:21:59.063Z,62.80
2019-05-06T20:24:29.383Z,63.00
2019-05-06T20:26:59.749Z,64.00
2019-05-06T20:29:32.343Z,64.50
2019-05-06T20:32:02.082Z,65.10
2019-05-06T20:34:32.491Z,65.70
2019-05-06T20:37:02.858Z,66.60
2019-05-06T20:39:33.289Z,67.70
2019-05-06T20:42:03.736Z,68.00
2019-05-06T20:44:34.059Z,68.40
2019-05-06T20:47:04.414Z,69.10
2019-05-06T20:49:34.799Z,69.80
2019-05-06T20:52:05.140Z,70.00
2019-05-06T20:54:35.514Z,70.20
2019-05-06T20:57:05.862Z,71.00
2019-05-06T20:59:36.214Z,71.80
2019-05-06T21:02:06.759Z,72.40
2019-05-06T21:04:37.209Z,73.10
2019-05-06T21:07:08.398Z,73.20
2019-05-06T21:09:38.791Z,72.90
2019-05-06T21:12:09.224Z,72.70
2019-05-06T21:14:41.947Z,72.50
2019-05-06T21:17:12.391Z,72.30
2019-05-06T21:19:43.135Z,72.20
2019-05-06T21:22:13.615Z,72.30
2019-05-06T21:24:44.079Z,72.20
2019-05-06T21:27:14.455Z,72.80
2019-05-06T21:29:44.774Z,72.90
2019-05-06T21:32:15.200Z,72.80
2019-05-06T21:34:45.502Z,73.60
2019-05-06T21:37:15.845Z,74.40
2019-05-06T21:39:46.172Z,75.00
2019-05-06T21:42:16.506Z,75.90
2019-05-06T21:44:46.879Z,75.70
2019-05-06T21:47:17.300Z,76.30
2019-05-06T21:49:47.626Z,76.10
2019-05-06T21:52:17.975Z,76.10
2019-05-06T21:54:48.283Z,76.60
2019-05-06T21:57:18.628Z,77.50
2019-05-06T21:59:48.948Z,77.90
2019-05-06T22:02:22.901Z,78.00
2019-05-06T22:04:55.647Z,79.60
2019-05-06T22:07:25.237Z,79.80
2019-05-06T22:09:55.610Z,80.30
2019-05-06T22:12:25.938Z,79.60
2019-05-06T22:14:56.251Z,80.00
2019-05-06T22:17:26.616Z,80.60
2019-05-06T22:19:56.938Z,80.60
2019-05-06T22:22:28.853Z,80.70
2019-05-06T22:24:59.291Z,81.60
2019-05-06T22:27:29.821Z,81.20
2019-05-06T22:30:00.138Z,81.50
2019-05-06T22:32:33.062Z,83.00
2019-05-06T22:35:04.901Z,83.70
2019-05-06T22:37:35.238Z,84.30
2019-05-06T22:40:06.210Z,84.50
2019-05-06T22:42:36.549Z,83.40
2019-05-06T22:45:07.278Z,83.50
2019-05-06T22:47:37.622Z,83.90
2019-05-06T22:50:07.933Z,83.70
2019-05-06T22:52:38.271Z,83.80
2019-05-06T22:55:08.691Z,84.30
2019-05-06T22:57:39.031Z,84.90
2019-05-06T23:00:15.142Z,85.50
2019-05-06T23:02:59.636Z,85.80
2019-05-06T23:05:29.934Z,86.80
2019-05-06T23:08:02.667Z,86.40
2019-05-06T23:10:33.677Z,86.70
2019-05-06T23:13:04.252Z,87.40
2019-05-06T23:15:34.559Z,88.60
2019-05-06T23:18:04.925Z,88.90
2019-05-06T23:20:35.215Z,88.80
2019-05-06T23:23:05.554Z,88.80
2019-05-06T23:25:35.866Z,89.00
2019-05-06T23:28:06.296Z,91.30
2019-05-06T23:30:36.599Z,91.30
2019-05-06T23:33:06.950Z,91.50
2019-05-06T23:35:37.259Z,91.40
2019-05-06T23:38:43.351Z,91.50
2019-05-06T23:41:49.837Z,91.20
2019-05-06T23:44:56.425Z,92.60
2019-05-06T23:48:02.656Z,93.70
2019-05-06T23:51:09.061Z,92.60
2019-05-06T23:54:15.215Z,92.40
2019-05-06T23:56:44.768Z,92.90
2019-05-06T23:59:17.033Z,92.60
